Time;durP1;ratioP1;P1;durP2;ratioP2;P2;SDS_P1;SDS_P2;PMS_P1;PMS_P2;Temp;Humidity;BMP_temperature;BMP_pressure;BME280_temperature;BME280_humidity;BME280_pressure;Samples;Min_cycle;Max_cycle;Signal;HPM_P1;HPM_P2
2022/03/06 00:01:04;;;;;;;7.87;4.43;;;;;;;-0.67;85.52;101848.97;5021625;28;20044;-81
2022/03/06 00:03:31;;;;;;;9.10;4.57;;;;;;;-0.73;85.64;101843.50;5048879;28;20109;-81
2022/03/06 00:05:58;;;;;;;6.97;4.20;;;;;;;-0.79;85.58;101851.00;5030344;28;20042;-82
2022/03/06 00:08:24;;;;;;;8.23;4.20;;;;;;;-0.81;85.49;101847.47;5005271;28;20038;-82
2022/03/06 00:10:51;;;;;;;8.17;5.10;;;;;;;-0.76;84.98;101843.34;5038886;28;20408;-82
2022/03/06 00:13:18;;;;;;;8.80;4.60;;;;;;;-0.78;85.37;101853.66;5038980;28;20033;-82
2022/03/06 00:15:44;;;;;;;8.67;4.90;;;;;;;-0.51;80.76;101860.88;5022501;28;20099;-82
2022/03/06 00:18:11;;;;;;;7.40;4.27;;;;;;;-0.68;81.98;101848.06;5018904;28;20643;-80
2022/03/06 00:20:37;;;;;;;10.70;4.60;;;;;;;-0.68;83.72;101847.16;5020565;28;20049;-81
2022/03/06 00:23:05;;;;;;;9.63;5.80;;;;;;;-0.67;84.56;101855.06;5012933;28;20053;-82
2022/03/06 00:25:33;;;;;;;7.60;4.27;;;;;;;-0.72;84.91;101856.53;5017483;28;20056;-82
2022/03/06 00:28:00;;;;;;;7.93;4.83;;;;;;;-0.83;83.09;101852.59;5031794;28;20037;-82
2022/03/06 00:30:27;;;;;;;7.50;4.97;;;;;;;-0.76;83.36;101853.72;5030383;28;20071;-82
2022/03/06 00:32:54;;;;;;;8.90;4.37;;;;;;;-0.66;83.28;101851.63;5019152;28;20056;-82
2022/03/06 00:35:22;;;;;;;9.77;4.80;;;;;;;-0.69;81.99;101850.59;5036404;28;20068;-82
2022/03/06 00:37:49;;;;;;;9.27;5.50;;;;;;;-0.63;81.47;101859.53;5028043;28;20459;-81
2022/03/06 00:40:15;;;;;;;8.67;4.90;;;;;;;-0.73;82.93;101859.97;5016461;28;20083;-81
2022/03/06 00:42:42;;;;;;;9.03;5.43;;;;;;;-0.79;82.72;101858.78;5036898;28;20099;-81
2022/03/06 00:45:09;;;;;;;9.07;4.90;;;;;;;-0.74;82.48;101853.00;5034095;28;20459;-82
2022/03/06 00:47:36;;;;;;;11.80;5.23;;;;;;;-0.65;83.13;101845.63;5017689;28;20064;-81
2022/03/06 00:50:03;;;;;;;9.37;5.73;;;;;;;-0.73;84.21;101859.06;5010090;28;20049;-82
2022/03/06 00:52:30;;;;;;;9.83;5.23;;;;;;;-0.68;83.00;101855.84;5026953;28;20762;-81
2022/03/06 00:54:56;;;;;;;7.40;4.77;;;;;;;-0.73;84.34;101852.19;5046005;28;20048;-81
2022/03/06 00:57:23;;;;;;;9.30;5.40;;;;;;;-0.75;84.50;101853.81;5032914;28;20041;-82
2022/03/06 00:59:50;;;;;;;8.73;5.27;;;;;;;-0.72;83.69;101834.91;5017248;28;20040;-81
2022/03/06 01:02:16;;;;;;;8.97;4.83;;;;;;;-0.66;85.74;101835.19;5030598;28;20410;-81
2022/03/06 01:04:44;;;;;;;10.87;5.73;;;;;;;-0.75;85.67;101847.75;5035624;28;20045;-81
2022/03/06 01:07:10;;;;;;;7.43;4.77;;;;;;;-0.61;83.59;101846.63;5042933;28;20131;-81
2022/03/06 01:09:37;;;;;;;9.37;5.60;;;;;;;-0.53;82.49;101849.56;5040466;28;20116;-82
2022/03/06 01:12:04;;;;;;;8.97;4.50;;;;;;;-0.63;83.72;101848.28;5033714;28;20049;-81
2022/03/06 01:14:34;;;;;;;8.53;5.43;;;;;;;-0.71;84.20;101840.16;5051174;28;20056;-81
2022/03/06 01:17:00;;;;;;;11.07;5.90;;;;;;;-0.60;83.18;101843.19;5024822;28;20049;-81
2022/03/06 01:19:29;;;;;;;9.47;4.83;;;;;;;-0.68;83.16;101839.38;5054389;28;20045;-82
2022/03/06 01:21:56;;;;;;;8.43;4.70;;;;;;;-0.76;82.68;101844.22;5042081;28;20090;-82
2022/03/06 01:24:23;;;;;;;8.50;5.27;;;;;;;-0.68;82.22;101842.88;5032422;28;20041;-81
2022/03/06 01:26:50;;;;;;;8.90;4.67;;;;;;;-0.69;82.16;101850.59;5042937;28;20061;-82
2022/03/06 01:29:18;;;;;;;8.13;5.37;;;;;;;-0.71;82.80;101847.94;5042205;28;20056;-81
2022/03/06 01:31:45;;;;;;;8.50;4.60;;;;;;;-0.67;82.00;101852.47;5027147;28;20045;-81
2022/03/06 01:34:12;;;;;;;8.70;5.33;;;;;;;-0.74;82.04;101846.94;5056116;28;20053;-82
2022/03/06 01:36:39;;;;;;;7.87;5.40;;;;;;;-0.70;81.85;101844.50;5028010;28;20049;-81
2022/03/06 01:39:06;;;;;;;9.83;5.13;;;;;;;-0.71;81.94;101847.94;5031115;28;20508;-81
2022/03/06 01:41:35;;;;;;;7.70;5.00;;;;;;;-0.74;82.21;101845.22;5014131;28;20049;-81
2022/03/06 01:44:04;;;;;;;8.50;5.33;;;;;;;-0.78;83.33;101839.81;5033864;28;20049;-81
2022/03/06 01:46:31;;;;;;;8.20;5.50;;;;;;;-0.70;82.78;101841.91;5034786;28;20064;-82
2022/03/06 01:48:58;;;;;;;8.73;4.10;;;;;;;-0.78;82.29;101840.69;5032652;28;20048;-80
2022/03/06 01:51:25;;;;;;;10.03;5.23;;;;;;;-0.71;83.44;101842.75;5028975;28;20500;-80
2022/03/06 01:53:52;;;;;;;8.60;4.93;;;;;;;-0.73;82.02;101843.50;5030788;28;20583;-81
2022/03/06 01:56:18;;;;;;;7.13;4.47;;;;;;;-0.85;84.09;101849.00;5008387;28;20095;-80
2022/03/06 01:58:47;;;;;;;6.73;4.60;;;;;;;-0.80;84.19;101847.53;5006377;28;20037;-81
2022/03/06 02:01:15;;;;;;;7.27;5.00;;;;;;;-0.75;84.83;101832.19;5020122;28;20045;-81
2022/03/06 02:03:42;;;;;;;8.30;5.30;;;;;;;-0.75;85.66;101835.66;5030111;28;20429;-81
2022/03/06 02:06:09;;;;;;;8.27;4.70;;;;;;;-0.80;86.72;101837.16;5011403;28;20049;-82
2022/03/06 02:08:36;;;;;;;6.47;4.30;;;;;;;-0.87;86.95;101835.09;5014817;28;20049;-81
2022/03/06 02:11:03;;;;;;;7.67;4.23;;;;;;;-0.89;87.03;101839.34;5004085;28;20099;-81
2022/03/06 02:13:29;;;;;;;7.23;4.57;;;;;;;-0.87;87.48;101833.38;5029246;28;20056;-82
2022/03/06 02:16:00;;;;;;;7.80;5.03;;;;;;;-0.81;86.10;101827.59;5028259;28;20705;-82
2022/03/06 02:18:27;;;;;;;7.43;4.33;;;;;;;-0.85;87.34;101826.56;5029153;28;20501;-81
2022/03/06 02:20:53;;;;;;;7.53;4.50;;;;;;;-0.86;87.79;101834.28;5013059;28;20054;-82
2022/03/06 02:23:24;;;;;;;6.70;4.00;;;;;;;-0.91;87.51;101834.09;5043421;28;20047;-82
2022/03/06 02:25:51;;;;;;;9.03;4.43;;;;;;;-0.88;87.54;101828.13;5034529;28;20046;-80
2022/03/06 02:28:18;;;;;;;9.00;5.23;;;;;;;-0.69;86.10;101825.53;5041845;28;20423;-81
2022/03/06 02:30:44;;;;;;;7.13;4.70;;;;;;;-0.72;85.94;101822.81;5018958;28;20540;-81
2022/03/06 02:33:12;;;;;;;7.53;4.43;;;;;;;-0.79;87.04;101819.88;5038239;28;20067;-80
2022/03/06 02:35:39;;;;;;;6.77;4.20;;;;;;;-0.81;86.31;101821.53;5043004;28;20447;-80
2022/03/06 02:38:07;;;;;;;7.73;4.30;;;;;;;-0.79;85.46;101812.97;5038504;28;20149;-80
2022/03/06 02:40:39;;;;;;;8.33;3.93;;;;;;;-0.80;84.62;101811.22;5055323;28;20521;-80
2022/03/06 02:43:08;;;;;;;8.93;4.50;;;;;;;-0.86;85.44;101816.13;5039240;28;20049;-81
2022/03/06 02:45:36;;;;;;;7.70;4.63;;;;;;;-0.86;86.08;101811.81;5034306;28;20095;-81
2022/03/06 02:48:03;;;;;;;9.20;4.07;;;;;;;-0.92;85.87;101816.75;5032511;28;20075;-80
2022/03/06 02:50:32;;;;;;;7.37;4.17;;;;;;;-0.85;86.06;101815.28;5022955;28;20731;-81
2022/03/06 02:53:01;;;;;;;5.33;3.73;;;;;;;-0.85;85.74;101808.41;5035460;28;20645;-81
2022/03/06 02:55:30;;;;;;;5.73;4.00;;;;;;;-0.91;85.55;101807.25;5019716;28;20041;-81
2022/03/06 02:57:58;;;;;;;8.23;4.20;;;;;;;-0.87;84.63;101806.56;5026390;28;20049;-80
2022/03/06 03:00:25;;;;;;;6.60;3.53;;;;;;;-0.92;84.68;101811.56;5024662;28;20462;-81
2022/03/06 03:02:52;;;;;;;7.90;3.67;;;;;;;-0.86;84.30;101795.38;5017703;28;20045;-80
2022/03/06 03:05:19;;;;;;;4.57;3.23;;;;;;;-0.77;83.69;101800.06;5018751;28;20435;-81
2022/03/06 03:07:48;;;;;;;5.87;3.40;;;;;;;-0.92;82.31;101802.91;5017327;28;20053;-81
2022/03/06 03:10:18;;;;;;;6.07;3.13;;;;;;;-0.97;83.86;101802.69;5020568;28;20090;-81
2022/03/06 03:12:47;;;;;;;4.87;2.93;;;;;;;-0.83;83.80;101795.50;5017465;28;20508;-81
2022/03/06 03:15:15;;;;;;;5.10;3.10;;;;;;;-0.91;84.32;101797.78;5008156;28;20791;-81
2022/03/06 03:17:42;;;;;;;6.67;3.73;;;;;;;-1.05;85.66;101801.44;5008551;28;20041;-81
2022/03/06 03:20:09;;;;;;;5.40;3.70;;;;;;;-1.07;85.95;101812.59;5016954;28;20549;-81
2022/03/06 03:22:36;;;;;;;5.47;3.53;;;;;;;-0.90;86.11;101803.84;5020212;28;20079;-80
2022/03/06 03:25:07;;;;;;;5.97;3.50;;;;;;;-0.82;87.04;101810.25;5026923;28;20048;-80
2022/03/06 03:27:34;;;;;;;4.63;2.70;;;;;;;-0.81;86.36;101803.34;5035997;28;20039;-80
2022/03/06 03:30:02;;;;;;;7.83;3.73;;;;;;;-0.84;86.73;101806.72;5025885;28;20053;-80
2022/03/06 03:32:29;;;;;;;6.07;3.33;;;;;;;-0.94;87.25;101814.88;5016467;28;20536;-79
2022/03/06 03:34:55;;;;;;;4.67;3.40;;;;;;;-0.86;87.47;101810.94;5027646;28;20057;-80
2022/03/06 03:37:22;;;;;;;5.10;3.30;;;;;;;-0.77;85.23;101811.31;5032080;28;20045;-79
2022/03/06 03:39:49;;;;;;;7.13;3.20;;;;;;;-0.87;86.08;101812.63;5018287;28;20092;-80
2022/03/06 03:42:19;;;;;;;4.83;3.10;;;;;;;-0.95;87.90;101810.53;5034607;28;20068;-80
2022/03/06 03:44:47;;;;;;;6.03;3.23;;;;;;;-0.93;88.38;101809.75;5018265;28;20055;-80
2022/03/06 03:47:14;;;;;;;4.50;3.00;;;;;;;-1.04;87.81;101812.72;5032959;28;20626;-80
2022/03/06 03:49:41;;;;;;;5.50;3.10;;;;;;;-0.94;86.22;101817.47;5035860;28;20037;-80
2022/03/06 03:52:07;;;;;;;4.00;2.90;;;;;;;-0.95;85.60;101819.19;5032601;28;20107;-80
2022/03/06 03:54:35;;;;;;;5.23;3.10;;;;;;;-0.94;87.38;101810.59;5026325;28;20046;-80
2022/03/06 03:57:02;;;;;;;7.13;3.40;;;;;;;-1.07;88.02;101808.28;5018975;28;20047;-80
2022/03/06 03:59:30;;;;;;;3.73;2.50;;;;;;;-1.07;88.13;101818.66;5035990;28;20037;-80
2022/03/06 04:01:57;;;;;;;4.33;2.60;;;;;;;-0.88;87.96;101815.16;5015453;28;20095;-80
2022/03/06 04:04:26;;;;;;;4.97;2.80;;;;;;;-0.88;87.67;101812.56;5016713;28;20076;-79
2022/03/06 04:06:53;;;;;;;7.93;4.50;;;;;;;-0.77;86.20;101800.94;5027512;28;20457;-80
2022/03/06 04:09:20;;;;;;;4.70;3.13;;;;;;;-0.81;86.34;101809.44;5014920;28;20106;-80
2022/03/06 04:11:47;;;;;;;5.97;2.90;;;;;;;-0.83;86.47;101808.50;5035119;28;20504;-81
2022/03/06 04:14:14;;;;;;;3.23;2.37;;;;;;;-0.98;87.27;101807.81;5045875;28;20447;-81
2022/03/06 04:16:40;;;;;;;5.80;3.73;;;;;;;-1.00;87.82;101817.22;5034530;28;20041;-80
2022/03/06 04:19:07;;;;;;;5.23;2.70;;;;;;;-1.00;89.01;101812.94;5035212;28;20048;-80
2022/03/06 04:21:37;;;;;;;3.17;2.40;;;;;;;-0.89;88.81;101813.41;5015626;28;20067;-81
2022/03/06 04:24:07;;;;;;;4.83;2.70;;;;;;;-0.94;87.95;101820.06;5033261;28;20045;-80
2022/03/06 04:26:35;;;;;;;5.07;2.90;;;;;;;-0.91;89.33;101813.34;5052421;28;20044;-81
2022/03/06 04:29:05;;;;;;;4.93;2.70;;;;;;;-1.03;87.99;101811.88;5011539;28;20081;-80
2022/03/06 04:31:34;;;;;;;4.27;2.77;;;;;;;-0.87;87.07;101811.75;5032388;28;20041;-80
2022/03/06 04:34:02;;;;;;;5.30;2.73;;;;;;;-0.98;87.78;101813.88;5037549;28;20056;-81
2022/03/06 04:36:29;;;;;;;5.10;3.07;;;;;;;-1.15;86.92;101820.91;5039170;28;20045;-80
2022/03/06 04:38:58;;;;;;;3.40;2.47;;;;;;;-1.18;88.28;101818.19;5016598;28;20056;-80
2022/03/06 04:41:25;;;;;;;5.53;2.70;;;;;;;-1.09;88.44;101825.50;5019170;28;20443;-80
2022/03/06 04:43:52;;;;;;;3.57;2.17;;;;;;;-1.04;88.96;101815.31;5009344;28;20037;-82
2022/03/06 04:46:19;;;;;;;4.97;2.67;;;;;;;-1.05;90.07;101823.91;5039895;28;20606;-81
2022/03/06 04:48:46;;;;;;;4.20;2.77;;;;;;;-1.10;89.82;101826.28;5105205;23;20673;-82
2022/03/06 04:51:12;;;;;;;4.43;3.00;;;;;;;-0.93;88.34;101825.31;5025166;28;20045;-82
2022/03/06 04:53:39;;;;;;;5.67;4.10;;;;;;;-0.94;87.91;101822.66;5034868;28;20049;-81
2022/03/06 04:56:06;;;;;;;4.33;2.50;;;;;;;-1.06;88.79;101819.53;5021419;28;20079;-81
2022/03/06 04:58:33;;;;;;;4.03;3.20;;;;;;;-1.11;89.35;101823.63;5032737;28;20033;-82
2022/03/06 05:00:59;;;;;;;4.50;2.70;;;;;;;-1.19;87.97;101826.75;5023641;28;20049;-81
2022/03/06 05:03:26;;;;;;;4.57;2.80;;;;;;;-1.13;86.82;101824.44;5051721;28;20044;-79
2022/03/06 05:05:53;;;;;;;3.20;2.40;;;;;;;-0.86;86.85;101826.50;5017593;28;20507;-82
2022/03/06 05:08:21;;;;;;;3.60;2.60;;;;;;;-0.99;87.87;101829.38;5012006;28;20044;-80
2022/03/06 05:10:47;;;;;;;4.97;3.23;;;;;;;-1.08;89.01;101834.16;5028353;28;20041;-80
2022/03/06 05:13:14;;;;;;;3.83;2.50;;;;;;;-1.20;88.53;101832.75;5031785;28;20048;-81
2022/03/06 05:15:40;;;;;;;3.87;2.57;;;;;;;-1.23;87.55;101835.22;5004174;28;20056;-81
2022/03/06 05:18:07;;;;;;;3.00;2.30;;;;;;;-1.30;88.39;101835.75;5008172;28;20064;-80
2022/03/06 05:20:34;;;;;;;4.20;2.57;;;;;;;-1.22;87.81;101838.69;5025660;28;20050;-82
2022/03/06 05:23:00;;;;;;;4.30;2.57;;;;;;;-1.06;87.44;101832.50;5016920;28;20084;-80
2022/03/06 05:25:28;;;;;;;5.17;3.03;;;;;;;-0.89;86.92;101821.19;4997649;28;20048;-79
2022/03/06 05:27:55;;;;;;;5.83;2.57;;;;;;;-1.06;87.00;101827.31;5010117;28;20037;-81
2022/03/06 05:30:21;;;;;;;5.10;2.67;;;;;;;-1.05;86.62;101823.91;5008764;28;20040;-81
2022/03/06 05:32:48;;;;;;;2.73;1.90;;;;;;;-1.18;87.14;101823.38;5023630;28;20068;-82
2022/03/06 05:35:15;;;;;;;3.30;2.27;;;;;;;-1.27;88.07;101822.03;4993902;28;20499;-81
2022/03/06 05:37:42;;;;;;;3.87;2.50;;;;;;;-1.34;88.27;101820.88;5018952;28;20044;-80
2022/03/06 05:40:09;;;;;;;4.17;2.60;;;;;;;-1.20;88.46;101822.38;5016829;28;20052;-83
2022/03/06 05:42:35;;;;;;;3.90;2.37;;;;;;;-1.15;88.33;101827.78;4999814;28;20041;-80
2022/03/06 05:45:02;;;;;;;3.70;2.73;;;;;;;-1.21;88.30;101822.31;5016329;28;20041;-80
2022/03/06 05:47:29;;;;;;;4.80;2.77;;;;;;;-1.20;88.99;101819.78;5034357;28;20090;-80
2022/03/06 05:50:00;;;;;;;4.43;2.63;;;;;;;-1.20;89.42;101818.91;5032054;28;20037;-80
2022/03/06 05:52:27;;;;;;;4.60;2.50;;;;;;;-1.25;89.99;101816.13;5031238;28;20444;-81
2022/03/06 05:54:53;;;;;;;4.43;2.50;;;;;;;-1.24;90.15;101814.41;5015500;28;20071;-80
2022/03/06 05:57:20;;;;;;;7.43;2.60;;;;;;;-1.26;89.54;101824.72;4999341;28;20668;-80
2022/03/06 05:59:55;;;;;;;4.90;2.77;;;;;;;-1.24;90.55;101825.66;5031319;28;20045;-80
2022/03/06 06:02:23;;;;;;;3.93;2.53;;;;;;;-1.17;91.18;101821.66;5027440;28;20051;-80
2022/03/06 06:04:51;;;;;;;3.70;2.80;;;;;;;-1.12;90.18;101825.31;5029105;28;20175;-80
2022/03/06 06:07:17;;;;;;;4.83;2.57;;;;;;;-1.20;90.00;101819.78;5002166;28;20092;-83
2022/03/06 06:09:44;;;;;;;3.73;2.30;;;;;;;-1.19;90.68;101821.56;5033792;28;20048;-80
2022/03/06 06:12:11;;;;;;;3.17;2.27;;;;;;;-1.10;91.28;101826.28;5014018;28;20046;-81
2022/03/06 06:14:38;;;;;;;4.30;2.70;;;;;;;-1.08;91.66;101823.78;4997900;28;20049;-82
2022/03/06 06:17:04;;;;;;;4.00;2.50;;;;;;;-0.94;91.37;101833.03;5034853;28;20512;-80
2022/03/06 06:19:31;;;;;;;3.33;2.50;;;;;;;-0.97;91.94;101833.81;5036261;28;20044;-82
2022/03/06 06:22:04;;;;;;;6.70;2.87;;;;;;;-0.96;90.83;101832.09;5016188;28;20491;-82
2022/03/06 06:24:31;;;;;;;4.27;2.53;;;;;;;-1.06;91.01;101829.91;5023848;28;20423;-82
2022/03/06 06:26:57;;;;;;;3.80;2.40;;;;;;;-1.14;91.13;101834.75;5020552;28;20049;-80
2022/03/06 06:29:24;;;;;;;5.13;2.70;;;;;;;-1.20;91.37;101839.66;5023332;28;20439;-81
2022/03/06 06:31:52;;;;;;;4.73;2.63;;;;;;;-1.02;90.70;101843.06;5034977;28;20041;-81
2022/03/06 06:34:20;;;;;;;5.17;2.90;;;;;;;-0.97;91.02;101840.69;5014481;28;20444;-80
2022/03/06 06:36:48;;;;;;;4.13;2.90;;;;;;;-0.96;90.00;101839.88;5019120;28;20045;-80
2022/03/06 06:39:18;;;;;;;3.93;2.50;;;;;;;-0.91;90.27;101836.69;5035820;28;20075;-80
2022/03/06 06:41:45;;;;;;;4.47;3.00;;;;;;;-0.87;90.72;101840.28;5034596;28;20410;-81
2022/03/06 06:44:14;;;;;;;5.87;2.47;;;;;;;-0.79;87.73;101841.50;5032963;28;20037;-80
2022/03/06 06:46:40;;;;;;;5.17;2.60;;;;;;;-0.79;87.66;101840.63;5002999;28;20083;-82
2022/03/06 06:49:08;;;;;;;5.17;2.90;;;;;;;-0.81;87.64;101845.75;5019377;28;20037;-81
2022/03/06 06:51:35;;;;;;;4.50;2.50;;;;;;;-0.77;87.03;101842.47;5036114;28;20557;-81
2022/03/06 06:54:01;;;;;;;4.07;2.50;;;;;;;-0.74;88.45;101844.31;5024629;28;20410;-79
2022/03/06 06:56:28;;;;;;;4.20;2.73;;;;;;;-0.70;88.70;101841.91;5033887;28;20072;-78
2022/03/06 06:58:55;;;;;;;4.03;2.67;;;;;;;-0.71;89.12;101842.75;5031721;28;20525;-79
2022/03/06 07:01:22;;;;;;;4.60;2.63;;;;;;;-0.67;90.46;101844.66;5035049;28;20041;-79
2022/03/06 07:03:50;;;;;;;3.63;2.67;;;;;;;-0.74;90.69;101837.44;5018834;28;20040;-80
2022/03/06 07:06:17;;;;;;;6.70;3.23;;;;;;;-0.74;90.11;101833.94;5034237;28;20067;-80
2022/03/06 07:08:43;;;;;;;4.30;2.70;;;;;;;-0.73;89.39;101840.91;5051855;28;20044;-80
2022/03/06 07:11:10;;;;;;;7.30;3.27;;;;;;;-0.60;88.68;101851.00;5015740;28;20044;-79
2022/03/06 07:13:37;;;;;;;3.93;2.30;;;;;;;-0.61;87.55;101850.09;5012341;28;20094;-78
2022/03/06 07:16:04;;;;;;;4.50;3.03;;;;;;;-0.50;84.26;101854.91;5035091;28;20491;-78
2022/03/06 07:18:31;;;;;;;5.30;3.30;;;;;;;-0.57;84.82;101852.03;5051258;28;20033;-79
2022/03/06 07:20:58;;;;;;;5.20;3.27;;;;;;;-0.45;85.88;101858.56;5020068;28;20547;-80
2022/03/06 07:23:25;;;;;;;4.93;3.10;;;;;;;-0.50;85.30;101857.50;5027075;28;20116;-79
2022/03/06 07:25:51;;;;;;;5.07;3.00;;;;;;;-0.51;84.85;101863.47;5037477;28;20048;-80
2022/03/06 07:28:18;;;;;;;5.53;3.30;;;;;;;-0.47;82.48;101863.69;5017350;28;20095;-79
2022/03/06 07:30:45;;;;;;;3.70;2.90;;;;;;;-0.45;82.81;101866.34;5021113;28;20500;-78
2022/03/06 07:33:12;;;;;;;5.20;3.70;;;;;;;-0.32;81.96;101866.97;5003146;28;20131;-82
2022/03/06 07:35:39;;;;;;;6.80;3.47;;;;;;;-0.37;78.81;101872.75;5013422;28;20045;-80
2022/03/06 07:38:05;;;;;;;6.83;3.83;;;;;;;-0.38;77.22;101864.09;5002612;28;20049;-79
2022/03/06 07:40:33;;;;;;;5.97;3.70;;;;;;;-0.47;74.87;101873.19;5010265;28;20178;-79
2022/03/06 07:43:00;;;;;;;6.17;3.77;;;;;;;-0.43;75.90;101869.91;5017889;28;20079;-79
2022/03/06 07:45:26;;;;;;;7.13;3.70;;;;;;;-0.32;76.66;101873.88;5021998;28;20039;-80
2022/03/06 07:47:54;;;;;;;5.43;3.20;;;;;;;-0.28;76.41;101871.44;5032632;28;20041;-80
2022/03/06 07:50:21;;;;;;;5.77;3.43;;;;;;;-0.25;76.63;101875.91;5015050;28;20132;-79
2022/03/06 07:52:47;;;;;;;8.30;5.20;;;;;;;-0.14;73.82;101876.34;5035440;28;20087;-79
2022/03/06 07:55:14;;;;;;;6.40;4.20;;;;;;;-0.15;72.71;101879.78;5029149;28;20059;-79
2022/03/06 07:57:41;;;;;;;6.90;3.80;;;;;;;-0.07;71.36;101871.47;5017661;28;20099;-79
2022/03/06 08:00:10;;;;;;;5.20;3.43;;;;;;;0.01;71.46;101882.19;5017094;28;20083;-80
2022/03/06 08:02:38;;;;;;;6.03;3.83;;;;;;;0.03;72.04;101877.94;5001892;28;20060;-81
2022/03/06 08:05:06;;;;;;;4.57;3.40;;;;;;;0.08;74.20;101883.31;5023189;28;20155;-80
2022/03/06 08:07:33;;;;;;;5.13;3.30;;;;;;;0.09;74.37;101879.91;5001547;28;20392;-80
2022/03/06 08:10:00;;;;;;;7.07;4.07;;;;;;;0.17;73.69;101883.69;5016588;28;20500;-80
2022/03/06 08:12:27;;;;;;;6.10;3.77;;;;;;;0.18;71.33;101882.91;5031122;28;20053;-80
2022/03/06 08:14:54;;;;;;;6.73;3.90;;;;;;;0.44;64.68;101882.25;5028882;28;20042;-80
2022/03/06 08:17:21;;;;;;;4.17;3.20;;;;;;;0.34;65.79;101885.31;5002682;28;20057;-81
2022/03/06 08:19:48;;;;;;;5.03;3.20;;;;;;;0.28;67.92;101892.84;5033867;28;20037;-80
2022/03/06 08:22:15;;;;;;;5.57;3.30;;;;;;;0.24;68.78;101896.13;5031885;28;20696;-80
2022/03/06 08:24:42;;;;;;;3.97;3.07;;;;;;;0.25;68.72;101891.00;5033287;28;20385;-80
2022/03/06 08:27:08;;;;;;;5.20;3.10;;;;;;;0.35;68.11;101887.06;5045880;28;20156;-80
2022/03/06 08:29:35;;;;;;;4.97;3.20;;;;;;;0.39;65.17;101878.56;5033025;28;20040;-81
2022/03/06 08:32:02;;;;;;;5.50;3.80;;;;;;;0.41;64.45;101887.28;5027567;28;20073;-80
2022/03/06 08:34:29;;;;;;;5.37;3.10;;;;;;;0.36;65.05;101878.44;5035232;28;20048;-80
2022/03/06 08:36:56;;;;;;;4.53;3.60;;;;;;;0.31;60.95;101884.28;5019663;28;20064;-79
2022/03/06 08:39:22;;;;;;;4.23;2.87;;;;;;;0.37;62.63;101880.22;5024523;28;20040;-80
2022/03/06 08:41:51;;;;;;;5.27;3.40;;;;;;;0.42;64.33;101881.31;5021403;28;20041;-83
2022/03/06 08:44:19;;;;;;;4.33;3.10;;;;;;;0.43;65.32;101888.28;5017492;28;20033;-82
2022/03/06 08:46:45;;;;;;;3.43;2.70;;;;;;;0.44;66.18;101883.94;5032311;28;20048;-82
2022/03/06 08:49:13;;;;;;;3.87;2.90;;;;;;;0.51;62.51;101875.56;5026895;28;20071;-81
2022/03/06 08:51:39;;;;;;;4.03;2.90;;;;;;;0.55;62.92;101872.25;5044832;28;20044;-82
2022/03/06 08:54:06;;;;;;;6.03;3.23;;;;;;;0.64;64.26;101871.72;5034989;28;20037;-81
2022/03/06 08:56:33;;;;;;;5.13;3.03;;;;;;;0.67;65.48;101885.72;5045946;28;20055;-81
2022/03/06 08:59:00;;;;;;;5.07;2.70;;;;;;;0.69;62.99;101886.69;5039456;28;20449;-83
2022/03/06 09:01:27;;;;;;;5.93;2.67;;;;;;;0.70;62.21;101874.59;5047335;28;20072;-82
2022/03/06 09:03:54;;;;;;;5.40;2.53;;;;;;;0.43;60.13;101882.19;5009669;28;20041;-83
2022/03/06 09:06:21;;;;;;;3.73;2.57;;;;;;;0.76;61.97;101883.50;5027277;28;20044;-82
2022/03/06 09:08:47;;;;;;;4.03;2.67;;;;;;;0.84;60.88;101876.91;5044218;28;20041;-83
2022/03/06 09:11:14;;;;;;;3.43;2.30;;;;;;;0.80;61.43;101871.50;5021417;28;20045;-83
2022/03/06 09:13:41;;;;;;;3.83;2.70;;;;;;;0.89;62.90;101868.38;5008820;28;20037;-83
2022/03/06 09:16:08;;;;;;;3.43;2.40;;;;;;;0.99;63.07;101868.75;5049319;28;20055;-82
2022/03/06 09:18:35;;;;;;;3.13;2.40;;;;;;;1.22;63.53;101858.34;5019829;28;20500;-83
2022/03/06 09:21:02;;;;;;;5.80;2.70;;;;;;;1.36;60.93;101862.31;5024040;28;20056;-84
2022/03/06 09:23:29;;;;;;;3.80;2.13;;;;;;;1.50;61.65;101858.47;5017518;28;20056;-81
2022/03/06 09:25:56;;;;;;;4.20;2.50;;;;;;;1.65;61.13;101861.63;5013258;28;20047;-84
2022/03/06 09:28:22;;;;;;;3.97;2.73;;;;;;;1.66;61.21;101866.00;5030340;28;20064;-85
2022/03/06 09:30:49;;;;;;;9.90;5.97;;;;;;;1.94;56.94;101866.97;4997448;28;20044;-82
2022/03/06 09:33:16;;;;;;;4.07;2.10;;;;;;;1.67;55.72;101867.78;5016061;28;20430;-84
2022/03/06 09:35:43;;;;;;;4.23;2.20;;;;;;;1.68;57.28;101868.66;4994734;28;20106;-82
2022/03/06 09:38:10;;;;;;;2.87;1.80;;;;;;;1.55;57.81;101869.97;5012765;28;20049;-81
2022/03/06 09:40:37;;;;;;;5.63;2.10;;;;;;;1.69;58.87;101878.28;4990435;28;20092;-82
2022/03/06 09:43:10;;;;;;;3.40;1.83;;;;;;;1.88;56.74;101871.97;5018464;28;20044;-81
2022/03/06 09:45:40;;;;;;;5.03;3.00;;;;;;;1.69;56.61;101870.47;5050750;28;20135;-81
2022/03/06 09:48:08;;;;;;;3.53;1.70;;;;;;;1.60;55.95;101871.03;5035086;28;20664;-80
2022/03/06 09:50:35;;;;;;;2.40;1.63;;;;;;;1.71;56.05;101879.19;5020456;28;20037;-82
2022/03/06 09:53:02;;;;;;;2.53;1.67;;;;;;;1.50;57.38;101879.31;5037199;28;20041;-80
2022/03/06 09:55:30;;;;;;;3.23;1.73;;;;;;;1.54;58.37;101880.31;5035540;28;20151;-84
2022/03/06 09:57:57;;;;;;;4.17;2.87;;;;;;;1.63;58.27;101878.94;5024716;28;20041;-81
2022/03/06 10:00:25;;;;;;;2.20;1.50;;;;;;;1.73;56.30;101872.31;5015247;28;20052;-80
2022/03/06 10:03:00;;;;;;;2.83;1.60;;;;;;;1.76;57.18;101872.41;5012739;28;20128;-82
2022/03/06 10:05:37;;;;;;;2.93;1.93;;;;;;;1.53;57.67;101862.94;5004698;28;20044;-80
2022/03/06 10:08:29;;;;;;;2.40;1.27;;;;;;;1.58;58.37;101871.78;5035843;28;20081;-81
2022/03/06 10:10:57;;;;;;;10.67;9.57;;;;;;;1.72;59.17;101869.66;5031223;28;20395;-84
2022/03/06 10:13:36;;;;;;;6.53;5.93;;;;;;;1.81;58.86;101869.97;5036604;28;20048;-83
2022/03/06 10:16:04;;;;;;;2.47;1.90;;;;;;;1.82;58.09;101869.16;5026110;28;20041;-83
2022/03/06 10:18:34;;;;;;;13.00;7.60;;;;;;;1.94;59.78;101873.06;5031949;28;20055;-79
2022/03/06 10:21:08;;;;;;;4.63;1.77;;;;;;;2.12;59.35;101883.22;4998561;28;20040;-79
2022/03/06 10:23:35;;;;;;;2.63;1.30;;;;;;;2.04;57.26;101876.88;5007841;28;20526;-80
2022/03/06 10:26:09;;;;;;;1.70;1.10;;;;;;;2.08;54.93;101870.91;5003899;28;20115;-79
2022/03/06 10:28:53;;;;;;;13.23;8.77;;;;;;;1.92;56.27;101866.91;5015476;28;20099;-79
2022/03/06 10:31:20;;;;;;;;;;;;;;;1.87;56.23;101873.69;5028669;28;20127;-82
2022/03/06 10:34:05;;;;;;;2.03;1.40;;;;;;;1.81;57.61;101867.38;5003305;28;19928;-80
2022/03/06 10:36:33;;;;;;;3.63;1.98;;;;;;;1.85;58.09;101866.63;5037072;28;20495;-80
2022/03/06 10:39:01;;;;;;;5.53;4.00;;;;;;;1.97;59.25;101867.06;5036795;28;20549;-80
2022/03/06 10:42:10;;;;;;;3.63;2.13;;;;;;;1.94;57.47;101875.69;5012620;28;20534;-80
2022/03/06 10:45:23;;;;;;;4.63;1.50;;;;;;;1.91;56.45;101861.63;5044748;28;20071;-79
2022/03/06 10:47:50;;;;;;;2.33;1.37;;;;;;;1.79;57.23;101869.06;5053254;28;20033;-80
2022/03/06 10:50:22;;;;;;;1.93;1.47;;;;;;;1.80;57.23;101866.50;5043937;28;20042;-79
2022/03/06 10:52:53;;;;;;;2.13;1.37;;;;;;;1.75;57.67;101860.22;5017397;28;20112;-80
2022/03/06 10:55:34;;;;;;;2.03;1.20;;;;;;;1.57;56.98;101856.97;5030787;28;20599;-79
2022/03/06 10:58:03;;;;;;;1.20;1.00;;;;;;;1.62;57.80;101860.66;5027424;28;20045;-80
2022/03/06 11:00:30;;;;;;;2.10;1.20;;;;;;;1.85;56.88;101864.03;5025242;28;20121;-80
2022/03/06 11:03:01;;;;;;;1.80;1.17;;;;;;;1.82;57.86;101863.94;5009452;28;20040;-80
2022/03/06 11:05:28;;;;;;;1.30;1.00;;;;;;;1.86;58.08;101865.81;5023981;28;20045;-80
2022/03/06 11:07:55;;;;;;;1.50;1.20;;;;;;;1.84;58.23;101862.25;5018807;28;20131;-80
2022/03/06 11:10:22;;;;;;;2.77;1.93;;;;;;;1.76;57.78;101864.59;5020878;28;20098;-80
2022/03/06 11:12:49;;;;;;;1.50;1.20;;;;;;;1.91;58.58;101857.31;5011255;28;20089;-80
2022/03/06 11:15:17;;;;;;;2.70;2.13;;;;;;;1.86;57.73;101858.91;5032421;28;20131;-81
2022/03/06 11:17:44;;;;;;;2.80;1.70;;;;;;;2.04;59.41;101858.63;5047212;28;20056;-81
2022/03/06 11:20:12;;;;;;;35.67;17.87;;;;;;;2.11;57.94;101850.19;5029160;28;20072;-81
2022/03/06 11:22:53;;;;;;;4.47;2.60;;;;;;;1.95;56.94;101854.00;5028009;28;20049;-81
2022/03/06 11:25:26;;;;;;;4.63;2.83;;;;;;;2.04;58.79;101848.19;5042030;28;20071;-80
2022/03/06 11:28:09;;;;;;;7.40;4.23;;;;;;;2.20;58.54;101855.69;5022564;28;20038;-81
2022/03/06 11:30:36;;;;;;;4.00;2.60;;;;;;;2.19;57.65;101848.72;5031576;28;20107;-81